SILO ALERT LOG
| Silo ID | Alert Type | Alert Message | Silo Type | Points | Depth (mm) | Strength | Temperature (°C) | Humidity (%) | Height (mm) | Volume (㎥) | Weight (t) | Flag | Time |
|---|---|---|---|---|---|---|---|---|---|---|---|---|---|
| WJWJR01 | Humidity | 습도센서 측정값이 80% 초과 | 평 | 62 | 3500 | 3330 | 23.7 | 80.9 | 4140 | 468.223 | 296.011 | 0 | 2026-06-20 20:26:20.000 |
| WJWJR01 | Humidity | 습도센서 측정값이 80% 초과 | 평 | 61 | 3500 | 3352 | 24 | 80.6 | 4140 | 468.223 | 296.011 | 0 | 2026-06-20 14:26:16.000 |
| WJWJR01 | Humidity | 습도센서 측정값이 80% 초과 | 평 | 61 | 3500 | 3322 | 23.9 | 80.9 | 4140 | 468.223 | 296.011 | 0 | 2026-06-20 13:26:20.000 |
| WJWJR01 | Humidity | 습도센서 측정값이 80% 초과 | 평 | 61 | 3510 | 3332 | 23.9 | 80.9 | 4130 | 467.092 | 295.296 | 0 | 2026-06-20 12:26:18.000 |
| WJWJR01 | Humidity | 습도센서 측정값이 80% 초과 | 평 | 62 | 3490 | 3336 | 23.8 | 81 | 4149 | 469.354 | 296.726 | 0 | 2026-06-20 11:26:17.000 |
| WJWJR01 | Humidity | 습도센서 측정값이 80% 초과 | 평 | 61 | 3480 | 3312 | 23.8 | 81 | 4160 | 470.485 | 297.441 | 0 | 2026-06-20 10:26:16.000 |
| WJWJR01 | Humidity | 습도센서 측정값이 80% 초과 | 평 | 71 | 3390 | 3329 | 23.8 | 81.1 | 4250 | 480.664 | 303.876 | 0 | 2026-06-20 09:26:30.000 |
| WJWJR01 | Humidity | 습도센서 측정값이 80% 초과 | 평 | 61 | 3500 | 3307 | 23.9 | 80.7 | 4140 | 468.223 | 296.011 | 0 | 2026-06-20 08:26:15.000 |
| WJWJR01 | Humidity | 습도센서 측정값이 80% 초과 | 평 | 72 | 3370 | 3337 | 24 | 80.9 | 4270 | 482.926 | 305.306 | 0 | 2026-06-20 07:26:32.000 |
| WJWJR01 | Humidity | 습도센서 측정값이 80% 초과 | 평 | 61 | 3490 | 3314 | 24.2 | 80.8 | 4149 | 469.354 | 296.726 | 0 | 2026-06-20 06:26:17.000 |
| WJWJR01 | Humidity | 습도센서 측정값이 80% 초과 | 평 | 70 | 3480 | 3319 | 24.4 | 80.5 | 4160 | 470.485 | 297.441 | 0 | 2026-06-20 05:26:22.000 |
| WJWJR01 | Humidity | 습도센서 측정값이 80% 초과 | 평 | 62 | 3490 | 3289 | 24.6 | 80.4 | 4149 | 469.354 | 296.726 | 0 | 2026-06-20 04:26:20.000 |
| WJWJR01 | Humidity | 습도센서 측정값이 80% 초과 | 평 | 61 | 3490 | 3261 | 24.7 | 80.2 | 4149 | 469.354 | 296.726 | 0 | 2026-06-20 03:26:17.000 |
| WJWJR01 | Humidity | 습도센서 측정값이 80% 초과 | 평 | 68 | 3530 | 3083 | 23.2 | 82.4 | 4109 | 464.83 | 293.866 | 0 | 2026-06-17 08:26:31.000 |
| WJWJR01 | Humidity | 습도센서 측정값이 80% 초과 | 평 | 68 | 3480 | 3087 | 21.6 | 82.1 | 4160 | 470.485 | 297.441 | 0 | 2026-06-17 07:26:33.000 |
| WJWJR01 | Humidity | 습도센서 측정값이 80% 초과 | 평 | 68 | 3520 | 3112 | 21.2 | 82.2 | 4119 | 465.961 | 294.581 | 0 | 2026-06-17 06:26:32.000 |
| WJWJR01 | Humidity | 습도센서 측정값이 80% 초과 | 평 | 68 | 3470 | 3093 | 21.4 | 81.7 | 4170 | 471.616 | 298.156 | 0 | 2026-06-17 05:26:29.000 |
| WJWJR01 | Humidity | 습도센서 측정값이 80% 초과 | 평 | 68 | 3480 | 3082 | 21.6 | 81.2 | 4160 | 470.485 | 297.441 | 0 | 2026-06-17 04:26:28.000 |
| WJWJR01 | Humidity | 습도센서 측정값이 80% 초과 | 평 | 68 | 3460 | 3063 | 21.9 | 80.8 | 4180 | 472.747 | 298.871 | 0 | 2026-06-17 03:26:32.000 |
| WJWJR01 | Humidity | 습도센서 측정값이 80% 초과 | 평 | 66 | 3450 | 3037 | 22.2 | 80.1 | 4189 | 473.878 | 299.586 | 0 | 2026-06-17 02:26:34.000 |
[첫 페이지] [43] [44] [45] [46] 47 [48] [49] [50] [51] [마지막 페이지]